Time;durP1;ratioP1;P1;durP2;ratioP2;P2;SDS_P1;SDS_P2;PMS_P1;PMS_P2;Temp;Humidity;BMP_temperature;BMP_pressure;BME280_temperature;BME280_humidity;BME280_pressure;Samples;Min_cycle;Max_cycle;Signal;HPM_P1;HPM_P2
2021/11/21 00:00:34;;;;;;;;;;;5.30;94.70;;;;;;5028609;28;19928;-79
2021/11/21 00:03:01;;;;;;;;;;;5.30;94.70;;;;;;5022850;28;19960;-80
2021/11/21 00:05:28;;;;;;;;;;;5.20;94.60;;;;;;5021621;28;19997;-76
2021/11/21 00:07:55;;;;;;;;;;;5.10;94.70;;;;;;5030751;28;19976;-76
2021/11/21 00:10:22;;;;;;;;;;;5.00;94.80;;;;;;5015850;28;19929;-80
2021/11/21 00:12:49;;;;;;;;;;;5.00;94.90;;;;;;5031259;28;19920;-77
2021/11/21 00:15:16;;;;;;;;;;;5.00;94.90;;;;;;5035408;28;19974;-79
2021/11/21 00:17:43;;;;;;;;;;;5.00;94.90;;;;;;5034748;28;20381;-80
2021/11/21 00:20:16;;;;;;;;;;;4.90;95.00;;;;;;5034716;28;19921;-80
2021/11/21 00:22:46;;;;;;;;;;;4.90;95.10;;;;;;5029451;28;20419;-80
2021/11/21 00:25:13;;;;;;;;;;;4.90;95.50;;;;;;5018189;28;19980;-78
2021/11/21 00:27:39;;;;;;;;;;;4.90;95.20;;;;;;5036290;28;20360;-80
2021/11/21 00:30:06;;;;;;;;;;;5.00;95.30;;;;;;5036890;28;19928;-76
2021/11/21 00:32:33;;;;;;;;;;;5.00;95.20;;;;;;5030693;28;19949;-79
2021/11/21 00:35:00;;;;;;;;;;;5.00;95.20;;;;;;5031578;28;19920;-79
2021/11/21 00:37:28;;;;;;;;;;;5.00;95.20;;;;;;5028519;28;20007;-79
2021/11/21 00:39:56;;;;;;;;;;;5.10;95.20;;;;;;5024661;28;19971;-79
2021/11/21 00:42:23;;;;;;;;;;;5.00;95.40;;;;;;5023059;28;19932;-76
2021/11/21 00:44:50;;;;;;;;;;;4.90;95.00;;;;;;5026942;28;19921;-79
2021/11/21 00:47:18;;;;;;;;;;;4.90;95.10;;;;;;5026711;28;19967;-80
2021/11/21 00:49:45;;;;;;;;;;;4.90;95.20;;;;;;5031696;28;19928;-80
2021/11/21 00:52:12;;;;;;;;;;;4.90;95.10;;;;;;5014648;28;19921;-80
2021/11/21 00:57:06;;;;;;;;;;;4.90;95.20;;;;;;5037557;28;19933;-80
2021/11/21 00:59:33;;;;;;;;;;;4.80;95.10;;;;;;5040524;28;19925;-80
2021/11/21 01:02:06;;;;;;;;;;;4.70;95.20;;;;;;5026388;28;19928;-79
2021/11/21 01:04:34;;;;;;;;;;;4.70;95.20;;;;;;5029347;28;19920;-79
2021/11/21 01:07:01;;;;;;;;;;;4.70;95.20;;;;;;5032140;28;20258;-79
2021/11/21 01:09:28;;;;;;;;;;;4.70;95.30;;;;;;5032000;28;19921;-80
2021/11/21 01:11:57;;;;;;;;;;;4.70;95.20;;;;;;5019909;28;19975;-80
2021/11/21 01:14:24;;;;;;;;;;;4.60;95.20;;;;;;5030222;28;19921;-80
2021/11/21 01:16:51;;;;;;;;;;;4.70;95.30;;;;;;5022773;28;19921;-76
2021/11/21 01:19:19;;;;;;;;;;;4.70;95.40;;;;;;5033472;28;19979;-80
2021/11/21 01:21:46;;;;;;;;;;;4.70;95.20;;;;;;5030543;28;19925;-79
2021/11/21 01:24:13;;;;;;;;;;;4.60;95.20;;;;;;5017701;28;19972;-80
2021/11/21 01:26:40;;;;;;;;;;;4.60;95.30;;;;;;5033199;28;19928;-79
2021/11/21 01:29:06;;;;;;;;;;;4.70;95.20;;;;;;5033896;28;20454;-79
2021/11/21 01:31:33;;;;;;;;;;;4.70;95.30;;;;;;5024176;28;19925;-80
2021/11/21 01:34:00;;;;;;;;;;;4.70;95.30;;;;;;5026236;28;19971;-79
2021/11/21 01:36:27;;;;;;;;;;;4.70;95.20;;;;;;5027196;28;19932;-80
2021/11/21 01:38:54;;;;;;;;;;;4.70;95.60;;;;;;5029609;28;19924;-80
2021/11/21 01:41:20;;;;;;;;;;;4.70;95.10;;;;;;5033688;28;19928;-80
2021/11/21 01:43:47;;;;;;;;;;;4.70;95.00;;;;;;5031101;28;19975;-80
2021/11/21 01:46:14;;;;;;;;;;;4.60;95.00;;;;;;5025281;28;19921;-80
2021/11/21 01:48:41;;;;;;;;;;;4.50;95.00;;;;;;5024211;28;20004;-79
2021/11/21 01:51:09;;;;;;;;;;;4.50;95.10;;;;;;5026936;28;19967;-79
2021/11/21 01:53:36;;;;;;;;;;;4.50;95.10;;;;;;5023205;28;19928;-76
2021/11/21 01:56:03;;;;;;;;;;;4.40;95.50;;;;;;5020358;28;19971;-80
2021/11/21 01:58:30;;;;;;;;;;;4.40;95.00;;;;;;5032385;28;19996;-76
2021/11/21 02:00:57;;;;;;;;;;;4.40;95.10;;;;;;5025993;28;19928;-79
2021/11/21 02:03:24;;;;;;;;;;;4.40;95.30;;;;;;5033585;28;19924;-79
2021/11/21 02:05:51;;;;;;;;;;;4.40;95.30;;;;;;5029379;28;19921;-80
2021/11/21 02:08:18;;;;;;;;;;;4.40;95.40;;;;;;5025211;28;19971;-80
2021/11/21 02:10:45;;;;;;;;;;;4.50;95.40;;;;;;5024985;28;20361;-80
2021/11/21 02:13:12;;;;;;;;;;;4.40;95.30;;;;;;5027331;28;19960;-80
2021/11/21 02:15:42;;;;;;;;;;;4.30;95.30;;;;;;5032598;28;20008;-76
2021/11/21 02:18:09;;;;;;;;;;;4.30;95.40;;;;;;5029156;28;19920;-81
2021/11/21 02:20:35;;;;;;;;;;;4.30;95.50;;;;;;5037292;28;19921;-80
2021/11/21 02:23:03;;;;;;;;;;;4.20;95.20;;;;;;5018056;28;20012;-79
2021/11/21 02:25:30;;;;;;;;;;;4.20;95.30;;;;;;5024543;28;20265;-76
2021/11/21 02:27:57;;;;;;;;;;;4.10;95.20;;;;;;5026099;28;19921;-76
2021/11/21 02:30:24;;;;;;;;;;;4.10;95.40;;;;;;5037182;28;19932;-79
2021/11/21 02:32:52;;;;;;;;;;;4.10;95.50;;;;;;5028573;28;19976;-79
2021/11/21 02:35:20;;;;;;;;;;;4.10;95.50;;;;;;5033729;28;20426;-76
2021/11/21 02:37:47;;;;;;;;;;;4.10;95.60;;;;;;5038433;28;19921;-79
2021/11/21 02:40:14;;;;;;;;;;;4.00;95.50;;;;;;5024055;28;19925;-80
2021/11/21 02:42:41;;;;;;;;;;;4.00;95.60;;;;;;5030586;28;19928;-79
2021/11/21 02:45:10;;;;;;;;;;;4.10;95.70;;;;;;5017865;28;19921;-80
2021/11/21 02:47:37;;;;;;;;;;;4.10;95.70;;;;;;5034286;28;19936;-77
2021/11/21 02:50:10;;;;;;;;;;;4.10;95.70;;;;;;5035107;28;20459;-76
2021/11/21 02:52:37;;;;;;;;;;;4.20;95.70;;;;;;5026081;28;19928;-79
2021/11/21 02:55:04;;;;;;;;;;;4.10;95.60;;;;;;5036731;28;19982;-81
2021/11/21 02:57:31;;;;;;;;;;;4.00;95.40;;;;;;5024297;28;20443;-79
2021/11/21 02:59:58;;;;;;;;;;;4.00;95.50;;;;;;5042018;28;19921;-80
2021/11/21 03:02:25;;;;;;;;;;;3.90;95.40;;;;;;5023237;28;19967;-79
2021/11/21 03:04:52;;;;;;;;;;;3.90;95.50;;;;;;5031844;28;19968;-79
2021/11/21 03:07:19;;;;;;;;;;;3.90;95.60;;;;;;5018321;28;19921;-76
2021/11/21 03:09:47;;;;;;;;;;;3.90;95.60;;;;;;5019503;28;19929;-81
2021/11/21 03:12:14;;;;;;;;;;;3.80;95.50;;;;;;5028475;28;20472;-79
2021/11/21 03:14:41;;;;;;;;;;;3.80;95.60;;;;;;5032103;28;20384;-81
2021/11/21 03:17:10;;;;;;;;;;;3.80;95.60;;;;;;5030320;28;20000;-76
2021/11/21 03:19:36;;;;;;;;;;;3.80;95.60;;;;;;5031420;28;19925;-80
2021/11/21 03:22:03;;;;;;;;;;;3.80;95.60;;;;;;5036703;28;19983;-80
2021/11/21 03:24:31;;;;;;;;;;;3.70;95.60;;;;;;5029093;28;19929;-79
2021/11/21 03:26:58;;;;;;;;;;;3.70;95.60;;;;;;5030991;28;19922;-79
2021/11/21 03:29:25;;;;;;;;;;;3.60;95.70;;;;;;5027867;28;19925;-81
2021/11/21 03:31:51;;;;;;;;;;;3.60;95.80;;;;;;5033489;28;20380;-80
2021/11/21 03:34:19;;;;;;;;;;;3.60;95.80;;;;;;5022491;28;20336;-81
2021/11/21 03:36:46;;;;;;;;;;;3.60;95.90;;;;;;5019111;28;19976;-79
2021/11/21 03:39:13;;;;;;;;;;;3.70;95.90;;;;;;5028586;28;19921;-79
2021/11/21 03:41:39;;;;;;;;;;;3.70;95.90;;;;;;5036285;28;19925;-80
2021/11/21 03:44:07;;;;;;;;;;;3.50;95.90;;;;;;5033699;28;19928;-80
2021/11/21 03:46:35;;;;;;;;;;;3.50;96.00;;;;;;5036006;28;19955;-79
2021/11/21 03:49:02;;;;;;;;;;;3.60;96.20;;;;;;5035696;28;20288;-79
2021/11/21 03:51:29;;;;;;;;;;;3.60;96.20;;;;;;5027526;28;19925;-79
2021/11/21 03:53:56;;;;;;;;;;;3.60;96.20;;;;;;5025921;28;19975;-79
2021/11/21 03:56:23;;;;;;;;;;;3.50;96.20;;;;;;5023666;28;19921;-80
2021/11/21 03:58:50;;;;;;;;;;;3.60;96.30;;;;;;5023926;28;20335;-79
2021/11/21 04:01:17;;;;;;;;;;;3.60;96.20;;;;;;5036923;28;19927;-76
2021/11/21 04:03:45;;;;;;;;;;;3.60;96.20;;;;;;5034663;28;19921;-80
2021/11/21 04:06:12;;;;;;;;;;;3.60;96.20;;;;;;5026441;28;20431;-80
2021/11/21 04:08:40;;;;;;;;;;;3.60;96.20;;;;;;5025076;28;20376;-80
2021/11/21 04:11:07;;;;;;;;;;;3.60;96.20;;;;;;5025993;28;20254;-79
2021/11/21 04:13:33;;;;;;;;;;;3.70;96.30;;;;;;5028785;28;19963;-77
2021/11/21 04:16:00;;;;;;;;;;;3.70;96.30;;;;;;5024656;28;19921;-79
2021/11/21 04:18:27;;;;;;;;;;;3.70;96.20;;;;;;5035875;28;19974;-80
2021/11/21 04:20:54;;;;;;;;;;;3.60;96.00;;;;;;5035467;28;19928;-80
2021/11/21 04:23:21;;;;;;;;;;;3.60;96.10;;;;;;5035484;28;20315;-80
2021/11/21 04:25:48;;;;;;;;;;;3.60;96.10;;;;;;5035039;28;19975;-81
2021/11/21 04:28:15;;;;;;;;;;;3.50;95.90;;;;;;5019021;28;19925;-81
2021/11/21 04:30:42;;;;;;;;;;;3.50;95.90;;;;;;5015460;28;19968;-79
2021/11/21 04:33:09;;;;;;;;;;;3.50;96.00;;;;;;5033820;28;19925;-80
2021/11/21 04:35:36;;;;;;;;;;;3.60;96.10;;;;;;5030708;28;19932;-80
2021/11/21 04:38:02;;;;;;;;;;;3.70;96.10;;;;;;5023450;28;19925;-81
2021/11/21 04:40:29;;;;;;;;;;;3.70;96.10;;;;;;5033332;28;19921;-80
2021/11/21 04:42:56;;;;;;;;;;;3.80;96.10;;;;;;5015301;28;19925;-80
2021/11/21 04:45:23;;;;;;;;;;;3.80;96.00;;;;;;5017821;28;20369;-76
2021/11/21 04:47:50;;;;;;;;;;;3.80;95.90;;;;;;5034961;28;19925;-81
2021/11/21 04:50:17;;;;;;;;;;;3.70;95.70;;;;;;5035664;28;19921;-79
2021/11/21 04:52:44;;;;;;;;;;;3.70;95.80;;;;;;5035134;28;20019;-76
2021/11/21 04:55:12;;;;;;;;;;;3.70;95.70;;;;;;5029790;28;19928;-80
2021/11/21 04:57:40;;;;;;;;;;;3.70;95.80;;;;;;5031410;28;19921;-80
2021/11/21 05:00:09;;;;;;;;;;;3.70;95.70;;;;;;5041011;28;19924;-76
2021/11/21 05:02:40;;;;;;;;;;;3.70;95.70;;;;;;5035294;28;19967;-76
2021/11/21 05:05:08;;;;;;;;;;;3.70;95.70;;;;;;5023309;28;19952;-81
2021/11/21 05:07:35;;;;;;;;;;;3.70;95.60;;;;;;5024509;28;19928;-81
2021/11/21 05:10:04;;;;;;;;;;;3.60;95.50;;;;;;5028385;28;19922;-81
2021/11/21 05:12:30;;;;;;;;;;;3.60;95.50;;;;;;5026859;28;20312;-79
2021/11/21 05:14:59;;;;;;;;;;;3.50;95.50;;;;;;5024148;28;20361;-79
2021/11/21 05:17:26;;;;;;;;;;;3.40;95.50;;;;;;5023595;28;19925;-76
2021/11/21 05:19:53;;;;;;;;;;;3.40;95.50;;;;;;5035571;28;20336;-81
2021/11/21 05:22:20;;;;;;;;;;;3.40;95.50;;;;;;5034819;28;19921;-80
2021/11/21 05:24:47;;;;;;;;;;;3.50;95.50;;;;;;5033860;28;19991;-81
2021/11/21 05:27:14;;;;;;;;;;;3.40;95.40;;;;;;5016138;28;19921;-81
2021/11/21 05:29:41;;;;;;;;;;;3.30;95.50;;;;;;5029027;28;20368;-80
2021/11/21 05:32:08;;;;;;;;;;;3.30;95.50;;;;;;5033195;28;19925;-80
2021/11/21 05:34:34;;;;;;;;;;;3.30;95.50;;;;;;5022408;28;19929;-80
2021/11/21 05:37:01;;;;;;;;;;;3.30;95.50;;;;;;5034672;28;19928;-76
2021/11/21 05:39:28;;;;;;;;;;;3.30;95.50;;;;;;5016990;28;20028;-77
2021/11/21 05:41:55;;;;;;;;;;;3.30;95.50;;;;;;5023198;28;19921;-79
2021/11/21 05:44:22;;;;;;;;;;;3.30;95.40;;;;;;5021195;28;20380;-76
2021/11/21 05:46:49;;;;;;;;;;;3.30;95.50;;;;;;5023729;28;19928;-82
2021/11/21 05:49:15;;;;;;;;;;;3.30;95.50;;;;;;5028030;28;19932;-79
2021/11/21 05:51:42;;;;;;;;;;;3.30;95.50;;;;;;5023889;28;20365;-76
2021/11/21 05:54:09;;;;;;;;;;;3.30;95.40;;;;;;5022782;28;19989;-80
2021/11/21 05:56:36;;;;;;;;;;;3.20;95.40;;;;;;5013761;28;20366;-81
2021/11/21 05:59:03;;;;;;;;;;;3.20;95.40;;;;;;5015377;28;20320;-79
2021/11/21 06:01:30;;;;;;;;;;;3.10;95.50;;;;;;5039237;28;19928;-81
2021/11/21 06:03:58;;;;;;;;;;;3.20;95.60;;;;;;5025116;28;20340;-76
2021/11/21 06:06:25;;;;;;;;;;;3.10;95.50;;;;;;5024213;28;19921;-80
2021/11/21 06:08:52;;;;;;;;;;;3.00;95.50;;;;;;5033853;28;19928;-79
2021/11/21 06:11:19;;;;;;;;;;;3.00;95.50;;;;;;5019757;28;20408;-79
2021/11/21 06:13:45;;;;;;;;;;;3.00;95.50;;;;;;5029430;28;19929;-80
2021/11/21 06:16:12;;;;;;;;;;;3.00;95.70;;;;;;5020774;28;20460;-79
2021/11/21 06:18:39;;;;;;;;;;;3.00;95.80;;;;;;5023002;28;19989;-80
2021/11/21 06:21:06;;;;;;;;;;;3.00;95.70;;;;;;5021328;28;20384;-80
2021/11/21 06:23:34;;;;;;;;;;;2.90;95.70;;;;;;5021244;28;20368;-76
2021/11/21 06:26:01;;;;;;;;;;;2.80;95.70;;;;;;5022957;28;20382;-80
2021/11/21 06:28:28;;;;;;;;;;;2.80;95.80;;;;;;5027909;28;19928;-79
2021/11/21 06:30:55;;;;;;;;;;;2.70;95.80;;;;;;5020020;28;19928;-80
2021/11/21 06:33:22;;;;;;;;;;;2.60;95.90;;;;;;5034239;28;19921;-79
2021/11/21 06:35:49;;;;;;;;;;;2.70;96.00;;;;;;5024755;28;19986;-79
2021/11/21 06:38:17;;;;;;;;;;;2.60;96.00;;;;;;5020857;28;20304;-80
2021/11/21 06:40:44;;;;;;;;;;;2.70;96.00;;;;;;5033556;28;19921;-79
2021/11/21 06:43:11;;;;;;;;;;;2.70;96.00;;;;;;5028866;28;19928;-82
2021/11/21 06:45:38;;;;;;;;;;;2.70;96.00;;;;;;5031817;28;19921;-80
2021/11/21 06:48:10;;;;;;;;;;;2.70;96.00;;;;;;5032316;28;19920;-77
2021/11/21 06:50:37;;;;;;;;;;;2.70;96.00;;;;;;5017034;28;19921;-77
2021/11/21 06:53:04;;;;;;;;;;;2.70;96.00;;;;;;5029454;28;19944;-77
2021/11/21 06:55:31;;;;;;;;;;;2.70;96.10;;;;;;5021426;28;19925;-77
2021/11/21 06:57:58;;;;;;;;;;;2.70;96.10;;;;;;5022136;28;20424;-80
2021/11/21 07:00:25;;;;;;;;;;;2.80;96.00;;;;;;5035895;28;19936;-77
2021/11/21 07:02:51;;;;;;;;;;;2.70;96.00;;;;;;5029569;28;20366;-78
2021/11/21 07:05:18;;;;;;;;;;;2.70;96.10;;;;;;5026492;28;20007;-77
2021/11/21 07:07:46;;;;;;;;;;;2.80;96.20;;;;;;5028059;28;19928;-76
2021/11/21 07:10:12;;;;;;;;;;;2.80;96.20;;;;;;5022363;28;19921;-80
2021/11/21 07:12:40;;;;;;;;;;;2.90;96.20;;;;;;5038203;28;19921;-80
2021/11/21 07:15:11;;;;;;;;;;;2.90;96.20;;;;;;5036732;28;19983;-80
2021/11/21 07:17:38;;;;;;;;;;;3.00;96.20;;;;;;5038155;28;19921;-82
2021/11/21 07:20:05;;;;;;;;;;;3.00;96.20;;;;;;5036555;28;19928;-80
2021/11/21 07:22:32;;;;;;;;;;;2.90;95.90;;;;;;5034469;28;20336;-76
2021/11/21 07:25:00;;;;;;;;;;;2.80;95.90;;;;;;5037722;28;19921;-80
2021/11/21 07:27:26;;;;;;;;;;;2.70;96.00;;;;;;5031994;28;19932;-76
2021/11/21 07:29:53;;;;;;;;;;;2.80;96.10;;;;;;5021806;28;19921;-79
2021/11/21 07:32:20;;;;;;;;;;;2.80;96.10;;;;;;5038638;28;20395;-81
2021/11/21 07:34:47;;;;;;;;;;;2.90;96.20;;;;;;5030415;28;19932;-80
2021/11/21 07:37:14;;;;;;;;;;;3.00;96.20;;;;;;5023318;28;19921;-79
2021/11/21 07:39:41;;;;;;;;;;;3.00;96.20;;;;;;5035870;28;19921;-80
2021/11/21 07:42:08;;;;;;;;;;;3.10;96.20;;;;;;5030590;28;19975;-76
2021/11/21 07:44:35;;;;;;;;;;;3.10;96.20;;;;;;5027609;28;19921;-81
2021/11/21 07:47:02;;;;;;;;;;;3.10;96.10;;;;;;5025061;28;19928;-80
2021/11/21 07:49:30;;;;;;;;;;;3.20;96.10;;;;;;5029225;28;19952;-80
2021/11/21 07:51:57;;;;;;;;;;;3.20;96.00;;;;;;5037111;28;19932;-77
2021/11/21 07:54:24;;;;;;;;;;;3.20;95.90;;;;;;5029535;28;19925;-82
2021/11/21 07:56:51;;;;;;;;;;;3.20;95.90;;;;;;5027646;28;19953;-79
2021/11/21 07:59:17;;;;;;;;;;;3.20;95.90;;;;;;5026865;28;19929;-80
2021/11/21 08:01:46;;;;;;;;;;;3.20;95.80;;;;;;5034437;28;19924;-76
2021/11/21 08:04:14;;;;;;;;;;;3.20;95.60;;;;;;5035390;28;19921;-80
2021/11/21 08:06:41;;;;;;;;;;;3.20;95.60;;;;;;5024762;28;19922;-80
2021/11/21 08:09:07;;;;;;;;;;;3.10;95.40;;;;;;5035010;28;19921;-80
2021/11/21 08:11:34;;;;;;;;;;;3.10;95.50;;;;;;5033741;28;19963;-82
2021/11/21 08:14:01;;;;;;;;;;;3.10;95.40;;;;;;5029745;28;20012;-81
2021/11/21 08:16:28;;;;;;;;;;;3.00;95.40;;;;;;5019285;28;19925;-80
2021/11/21 08:18:55;;;;;;;;;;;3.00;95.40;;;;;;5027613;28;19921;-77
2021/11/21 08:21:22;;;;;;;;;;;2.90;95.40;;;;;;5036545;28;19921;-80
2021/11/21 08:23:49;;;;;;;;;;;2.90;95.50;;;;;;5035543;28;20373;-80
2021/11/21 08:26:16;;;;;;;;;;;3.00;95.70;;;;;;5033961;28;19944;-82
2021/11/21 08:28:42;;;;;;;;;;;3.00;95.60;;;;;;5036112;28;19975;-81
2021/11/21 08:31:13;;;;;;;;;;;3.00;95.60;;;;;;5034992;28;19921;-78
2021/11/21 08:33:39;;;;;;;;;;;3.10;95.80;;;;;;5031915;28;19952;-81
2021/11/21 08:36:06;;;;;;;;;;;3.20;95.80;;;;;;5029048;28;19921;-80
2021/11/21 08:38:33;;;;;;;;;;;3.30;95.80;;;;;;5025041;28;19928;-81
2021/11/21 08:41:02;;;;;;;;;;;3.40;95.80;;;;;;5015594;28;20390;-78
2021/11/21 08:43:29;;;;;;;;;;;3.30;95.50;;;;;;5020706;28;19921;-81
2021/11/21 08:45:55;;;;;;;;;;;3.40;95.70;;;;;;5021787;28;19921;-80
2021/11/21 08:48:22;;;;;;;;;;;3.50;95.70;;;;;;5031840;28;19921;-79
2021/11/21 08:50:49;;;;;;;;;;;3.60;95.70;;;;;;5032369;28;19967;-75
2021/11/21 08:53:16;;;;;;;;;;;3.60;95.50;;;;;;5033364;28;19943;-80
2021/11/21 08:55:43;;;;;;;;;;;3.70;95.50;;;;;;5024669;28;19921;-75
2021/11/21 08:58:10;;;;;;;;;;;3.80;95.60;;;;;;5021351;28;19921;-80
2021/11/21 09:00:37;;;;;;;;;;;3.70;95.40;;;;;;5025536;28;19970;-79
2021/11/21 09:03:03;;;;;;;;;;;3.70;95.10;;;;;;5030481;28;20368;-80
2021/11/21 09:05:30;;;;;;;;;;;3.70;95.20;;;;;;5024853;28;19927;-80
2021/11/21 09:08:12;;;;;;;;;;;3.80;95.30;;;;;;5023252;28;19992;-79
2021/11/21 09:10:40;;;;;;;;;;;3.90;95.20;;;;;;5025308;28;19999;-75
2021/11/21 09:13:08;;;;;;;;;;;4.00;95.20;;;;;;5026646;28;20293;-79
2021/11/21 09:15:34;;;;;;;;;;;4.10;95.10;;;;;;5036696;28;20369;-80
2021/11/21 09:18:02;;;;;;;;;;;4.20;95.10;;;;;;5021157;28;20019;-79
2021/11/21 09:20:29;;;;;;;;;;;4.30;95.00;;;;;;5026294;28;19925;-80
2021/11/21 09:22:56;;;;;;;;;;;4.40;95.40;;;;;;5032148;28;19921;-80
2021/11/21 09:25:23;;;;;;;;;;;4.50;94.90;;;;;;5038533;28;19921;-75
2021/11/21 09:27:51;;;;;;;;;;;4.50;94.60;;;;;;5029606;28;20361;-75
2021/11/21 09:30:18;;;;;;;;;;;4.60;94.80;;;;;;5031819;28;19971;-80
2021/11/21 09:32:45;;;;;;;;;;;4.70;94.70;;;;;;5035345;28;19971;-75
2021/11/21 09:35:12;;;;;;;;;;;4.90;94.70;;;;;;5037894;28;19933;-76
2021/11/21 09:37:39;;;;;;;;;;;5.00;94.00;;;;;;5032635;28;19921;-76
2021/11/21 09:40:07;;;;;;;;;;;5.00;93.80;;;;;;5011342;28;19921;-79
2021/11/21 09:42:35;;;;;;;;;;;5.00;93.50;;;;;;5030049;28;19921;-79
2021/11/21 09:45:02;;;;;;;;;;;4.90;93.50;;;;;;5026040;28;19975;-80
2021/11/21 09:47:29;;;;;;;;;;;5.00;93.80;;;;;;5032959;28;19921;-79
2021/11/21 09:50:00;;;;;;;;;;;5.10;94.10;;;;;;5033947;28;20020;-79
2021/11/21 09:52:27;;;;;;;;;;;5.30;94.40;;;;;;5034580;28;19920;-80
2021/11/21 09:54:54;;;;;;;;;;;5.40;94.30;;;;;;5033833;28;19921;-79
2021/11/21 09:57:22;;;;;;;;;;;5.60;94.00;;;;;;5029452;28;19940;-80
2021/11/21 09:59:53;;;;;;;;;;;5.80;93.80;;;;;;5034682;28;20154;-76
2021/11/21 10:02:22;;;;;;;;;;;6.00;93.50;;;;;;5026757;28;19960;-80
2021/11/21 10:04:49;;;;;;;;;;;6.20;93.10;;;;;;5038385;28;20300;-76
2021/11/21 10:07:24;;;;;;;;;;;6.40;93.00;;;;;;5028269;28;19928;-76
2021/11/21 10:09:52;;;;;;;;;;;6.50;92.80;;;;;;5032963;28;19921;-76
2021/11/21 10:12:26;;;;;;;;;;;6.70;92.50;;;;;;5034474;28;19925;-79
2021/11/21 10:15:03;;;;;;;;;;;6.90;92.10;;;;;;5032561;28;19921;-75
2021/11/21 10:17:31;;;;;;;;;;;7.10;91.90;;;;;;5025426;28;19921;-75
2021/11/21 10:20:06;;;;;;;;;;;7.20;91.20;;;;;;5030342;28;19921;-81
2021/11/21 10:22:52;;;;;;;;;;;7.30;91.00;;;;;;5034025;28;19921;-81
2021/11/21 10:25:34;;;;;;;;;;;7.40;91.00;;;;;;5030477;28;19971;-81
2021/11/21 10:28:02;;;;;;;;;;;7.60;91.50;;;;;;5028637;28;20316;-80
2021/11/21 10:30:29;;;;;;;;;;;7.80;90.80;;;;;;5033774;28;20281;-76
2021/11/21 10:33:01;;;;;;;;;;;7.70;90.40;;;;;;5020468;28;20259;-76
2021/11/21 10:35:28;;;;;;;;;;;7.50;90.80;;;;;;5029344;28;20361;-80
2021/11/21 10:37:58;;;;;;;;;;;7.50;90.90;;;;;;5032736;28;19928;-76
2021/11/21 10:40:25;;;;;;;20.67;13.52;;;7.30;90.80;;;;;;5036579;28;19921;-81
2021/11/21 10:42:53;;;;;;;21.08;14.88;;;7.20;91.00;;;;;;5033623;28;20045;-81
2021/11/21 10:45:26;;;;;;;22.52;14.27;;;7.00;91.10;;;;;;5028890;28;20050;-80
2021/11/21 10:47:55;;;;;;;19.20;14.32;;;6.90;91.50;;;;;;5032812;28;20046;-79
2021/11/21 10:50:51;;;;;;;21.40;16.87;;;7.00;91.80;;;;;;5026945;28;20406;-80
2021/11/21 10:53:20;;;;;;;20.20;17.88;;;7.00;92.00;;;;;;5029894;28;20430;-80
2021/11/21 10:56:08;;;;;;;20.85;17.27;;;7.00;91.90;;;;;;5034077;28;20410;-80
2021/11/21 10:58:43;;;;;;;;;;;7.10;91.60;;;;;;5043086;28;20416;-81
2021/11/21 11:01:18;;;;;;;;;;;7.10;91.70;;;;;;5024447;28;20373;-80
2021/11/21 11:04:05;;;;;;;;;;;7.10;91.60;;;;;;5042341;28;19921;-81
2021/11/21 11:06:31;;;;;;;;;;;7.20;91.50;;;;;;5040970;28;19974;-80
2021/11/21 11:09:14;;;;;;;;;;;7.30;91.50;;;;;;5041011;28;19928;-80
2021/11/21 11:11:41;;;;;;;;;;;7.40;91.20;;;;;;5030499;28;19921;-76
2021/11/21 11:14:09;;;;;;;;;;;7.60;91.10;;;;;;5035661;28;19944;-79
2021/11/21 11:16:36;;;;;;;;;;;7.70;90.80;;;;;;5026564;28;20364;-80
2021/11/21 11:19:04;;;;;;;;;;;7.80;90.20;;;;;;5041472;28;19921;-81
2021/11/21 11:21:32;;;;;;;;;;;7.80;90.00;;;;;;5022497;28;19953;-81
2021/11/21 11:23:58;;;;;;;;;;;7.80;88.90;;;;;;5041183;28;19986;-79
2021/11/21 11:26:25;;;;;;;;;;;7.80;89.40;;;;;;5036795;28;20351;-79
2021/11/21 11:28:55;;;;;;;;;;;7.90;90.00;;;;;;5031777;28;19944;-81
2021/11/21 11:31:23;;;;;;;;;;;8.10;90.10;;;;;;5020966;28;19921;-80
2021/11/21 11:33:51;;;;;;;;;;;8.20;90.10;;;;;;5020289;28;19932;-80
2021/11/21 11:36:19;;;;;;;;;;;8.40;90.00;;;;;;5035076;28;20419;-81
2021/11/21 11:38:58;;;;;;;;;;;8.60;89.30;;;;;;5022407;28;19972;-75
2021/11/21 11:41:45;;;;;;;18.83;14.45;;;8.80;88.10;;;;;;5017295;28;19922;-80
2021/11/21 11:44:12;;;;;;;;;;;9.00;88.00;;;;;;5020194;28;20052;-76
2021/11/21 11:46:41;;;;;;;18.58;13.63;;;9.10;88.40;;;;;;5027868;28;19925;-81
2021/11/21 11:49:12;;;;;;;18.95;14.52;;;9.30;86.10;;;;;;5034333;28;20072;-80
2021/11/21 11:51:39;;;;;;;17.77;12.55;;;9.40;86.10;;;;;;5031836;28;20051;-79
2021/11/21 11:54:12;;;;;;;15.15;12.27;;;9.50;85.00;;;;;;5025823;28;20056;-80
2021/11/21 11:56:39;;;;;;;15.90;12.05;;;9.50;85.10;;;;;;5019914;28;20050;-80
2021/11/21 11:59:09;;;;;;;14.75;11.75;;;9.50;84.90;;;;;;5014715;28;20050;-81
2021/11/21 12:01:42;;;;;;;15.32;11.27;;;9.50;85.50;;;;;;5029299;28;20072;-80
2021/11/21 12:04:29;;;;;;;17.40;14.10;;;9.60;84.70;;;;;;5028374;28;20413;-80
2021/11/21 12:06:57;;;;;;;15.85;13.38;;;9.60;83.30;;;;;;5025037;28;20400;-79
2021/11/21 12:09:34;;;;;;;;;;;9.60;82.70;;;;;;5020030;28;20057;-80
2021/11/21 12:12:04;;;;;;;15.77;12.18;;;9.50;81.30;;;;;;5049103;28;19968;-81
2021/11/21 12:14:34;;;;;;;18.25;12.02;;;9.40;81.10;;;;;;5018072;28;20053;-80
2021/11/21 12:17:05;;;;;;;;;;;9.40;82.10;;;;;;5032580;28;20107;-80
2021/11/21 12:19:56;;;;;;;16.38;12.85;;;9.30;81.50;;;;;;5028519;28;20381;-80
2021/11/21 12:22:30;;;;;;;18.27;13.98;;;9.30;81.90;;;;;;5029206;28;20056;-76
2021/11/21 12:25:00;;;;;;;17.38;13.43;;;9.40;82.70;;;;;;5033775;28;20459;-75
2021/11/21 12:27:32;;;;;;;21.00;14.65;;;9.60;82.20;;;;;;5025515;28;20497;-80
2021/11/21 12:30:10;;;;;;;20.45;16.73;;;9.80;82.30;;;;;;5024449;28;20050;-76
2021/11/21 12:32:53;;;;;;;20.45;16.73;;;10.10;84.70;;;;;;5024207;28;20418;-75
2021/11/21 12:35:27;;;;;;;17.83;15.10;;;10.60;84.00;;;;;;5019069;28;20938;-80
2021/11/21 12:37:57;;;;;;;22.25;18.75;;;11.00;82.40;;;;;;5015696;28;20900;-80
2021/11/21 12:40:44;;;;;;;17.55;15.13;;;11.30;79.90;;;;;;5015203;28;20400;-80
2021/11/21 12:43:17;;;;;;;18.98;15.60;;;11.50;77.20;;;;;;5031555;28;20908;-81
2021/11/21 12:45:53;;;;;;;16.45;14.23;;;11.40;76.20;;;;;;5026763;28;20103;-79
2021/11/21 12:48:25;;;;;;;15.50;12.32;;;11.40;75.80;;;;;;5029901;28;20045;-81
2021/11/21 12:50:55;;;;;;;16.00;12.27;;;11.50;76.20;;;;;;5023200;28;20041;-80
2021/11/21 12:53:33;;;;;;;15.15;13.55;;;11.70;76.10;;;;;;5034467;28;20424;-84
2021/11/21 12:56:11;;;;;;;16.13;12.82;;;11.90;76.10;;;;;;5019832;28;20420;-82
2021/11/21 12:58:45;;;;;;;12.73;10.70;;;11.90;74.40;;;;;;5021551;28;20490;-79
2021/11/21 13:01:13;;;;;;;;;;;11.90;74.80;;;;;;5022988;28;20378;-79
2021/11/21 13:03:41;;;;;;;16.00;11.38;;;11.80;74.90;;;;;;5029248;28;19925;-79
2021/11/21 13:06:16;;;;;;;18.23;13.57;;;11.80;75.30;;;;;;5034949;28;20049;-83
2021/11/21 13:08:44;;;;;;;;;;;11.60;75.70;;;;;;5025592;28;20053;-76
2021/11/21 13:11:14;;;;;;;;;;;11.50;76.60;;;;;;5028479;28;19921;-82
2021/11/21 13:13:42;;;;;;;;;;;11.40;76.70;;;;;;5032380;28;19936;-78
2021/11/21 13:16:17;;;;;;;;;;;11.20;77.00;;;;;;5021467;28;19971;-76
2021/11/21 13:18:45;;;;;;;;;;;11.10;76.20;;;;;;5024539;28;19922;-79
2021/11/21 13:21:23;;;;;;;;;;;10.90;74.80;;;;;;5028110;28;20368;-80
2021/11/21 13:23:51;;;;;;;;;;;10.70;75.60;;;;;;5022438;28;20020;-80
2021/11/21 13:26:19;;;;;;;;;;;10.60;77.70;;;;;;5003053;28;19929;-77
2021/11/21 13:28:46;;;;;;;;;;;10.50;78.90;;;;;;5027807;28;19923;-79
2021/11/21 13:31:16;;;;;;;;;;;10.40;78.40;;;;;;5024513;28;20431;-77
2021/11/21 13:33:46;;;;;;;;;;;10.40;78.70;;;;;;5027073;28;19921;-76
2021/11/21 13:36:14;;;;;;;;;;;10.20;78.40;;;;;;5015581;28;19922;-76
2021/11/21 13:38:42;;;;;;;;;;;10.20;78.90;;;;;;5014409;28;20388;-79
2021/11/21 13:41:10;;;;;;;;;;;10.10;79.80;;;;;;5017611;28;20285;-79
2021/11/21 13:43:38;;;;;;;;;;;10.00;79.80;;;;;;5023527;28;19928;-76
2021/11/21 13:46:05;;;;;;;;;;;10.00;80.10;;;;;;5030413;28;19928;-76
2021/11/21 13:48:32;;;;;;;;;;;9.80;79.50;;;;;;5029823;28;20392;-78
2021/11/21 13:51:00;;;;;;;;;;;9.80;80.10;;;;;;5023693;28;20357;-79
2021/11/21 13:53:42;;;;;;;14.85;10.32;;;9.80;80.20;;;;;;5032309;28;20281;-78
2021/11/21 13:56:12;;;;;;;16.60;11.43;;;9.80;80.30;;;;;;5032693;28;20543;-77
2021/11/21 13:58:40;;;;;;;17.33;11.98;;;9.80;80.90;;;;;;5030627;28;20481;-76
2021/11/21 14:01:13;;;;;;;18.20;12.85;;;9.80;81.10;;;;;;5021406;28;20529;-78
2021/11/21 14:03:43;;;;;;;20.83;13.40;;;9.80;81.50;;;;;;5013009;28;20057;-79
2021/11/21 14:06:15;;;;;;;;;;;9.80;81.50;;;;;;5030672;28;20073;-76
2021/11/21 14:08:43;;;;;;;;;;;9.80;81.60;;;;;;5031985;28;19947;-79
2021/11/21 14:11:10;;;;;;;;;;;9.80;81.00;;;;;;5025955;28;19924;-81
2021/11/21 14:13:52;;;;;;;;;;;9.80;81.70;;;;;;5032826;28;19925;-79
2021/11/21 14:16:19;;;;;;;;;;;9.70;81.50;;;;;;5032082;28;20398;-82
2021/11/21 14:18:48;;;;;;;;;;;9.70;82.50;;;;;;5039094;28;19925;-75
2021/11/21 14:21:24;;;;;;;;;;;9.80;82.20;;;;;;5032984;28;19921;-76
2021/11/21 14:24:07;;;;;;;;;;;9.70;82.10;;;;;;5024087;28;20418;-77